sensor_id;sensor_type;location;lat;lon;timestamp;pressure;altitude;pressure_sealevel;temperature
40199;BMP280;25906;43.536;26.068;2023-09-18T00:01:45;99456.38;;;17.66
40199;BMP280;25906;43.536;26.068;2023-09-18T00:04:30;99454.75;;;17.59
40199;BMP280;25906;43.536;26.068;2023-09-18T00:07:16;99450.59;;;17.58
40199;BMP280;25906;43.536;26.068;2023-09-18T00:10:01;99444.63;;;17.63
40199;BMP280;25906;43.536;26.068;2023-09-18T00:12:47;99446.44;;;17.57
40199;BMP280;25906;43.536;26.068;2023-09-18T00:15:32;99447.94;;;17.49
40199;BMP280;25906;43.536;26.068;2023-09-18T00:18:18;99446.44;;;17.57
40199;BMP280;25906;43.536;26.068;2023-09-18T00:21:03;99445.09;;;17.53
40199;BMP280;25906;43.536;26.068;2023-09-18T00:23:49;99448.81;;;17.55
40199;BMP280;25906;43.536;26.068;2023-09-18T00:26:34;99450.00;;;17.54
40199;BMP280;25906;43.536;26.068;2023-09-18T00:29:20;99458.03;;;17.54
40199;BMP280;25906;43.536;26.068;2023-09-18T00:32:06;99457.63;;;17.47
40199;BMP280;25906;43.536;26.068;2023-09-18T00:34:51;99444.69;;;17.45
40199;BMP280;25906;43.536;26.068;2023-09-18T00:37:37;99446.63;;;17.45
40199;BMP280;25906;43.536;26.068;2023-09-18T00:40:24;99450.34;;;17.38
40199;BMP280;25906;43.536;26.068;2023-09-18T00:43:10;99452.63;;;17.21
40199;BMP280;25906;43.536;26.068;2023-09-18T00:45:56;99447.00;;;17.19
40199;BMP280;25906;43.536;26.068;2023-09-18T00:48:41;99447.47;;;17.09
40199;BMP280;25906;43.536;26.068;2023-09-18T00:51:27;99449.41;;;17.17
40199;BMP280;25906;43.536;26.068;2023-09-18T00:54:15;99450.25;;;17.14
40199;BMP280;25906;43.536;26.068;2023-09-18T00:57:03;99453.13;;;17.11
40199;BMP280;25906;43.536;26.068;2023-09-18T00:59:50;99445.84;;;17.11
40199;BMP280;25906;43.536;26.068;2023-09-18T01:02:35;99455.63;;;17.05
40199;BMP280;25906;43.536;26.068;2023-09-18T01:05:21;99451.63;;;17.01
40199;BMP280;25906;43.536;26.068;2023-09-18T01:08:06;99454.94;;;16.96
40199;BMP280;25906;43.536;26.068;2023-09-18T01:11:08;99453.16;;;16.93
40199;BMP280;25906;43.536;26.068;2023-09-18T01:14:06;99457.00;;;17.01
40199;BMP280;25906;43.536;26.068;2023-09-18T01:16:57;99451.78;;;16.97
40199;BMP280;25906;43.536;26.068;2023-09-18T01:19:45;99456.25;;;16.91
40199;BMP280;25906;43.536;26.068;2023-09-18T01:22:31;99444.25;;;16.87
40199;BMP280;25906;43.536;26.068;2023-09-18T01:25:17;99443.94;;;16.85
40199;BMP280;25906;43.536;26.068;2023-09-18T01:28:03;99448.66;;;16.90
40199;BMP280;25906;43.536;26.068;2023-09-18T01:30:48;99441.88;;;16.80
40199;BMP280;25906;43.536;26.068;2023-09-18T01:33:34;99443.63;;;16.83
40199;BMP280;25906;43.536;26.068;2023-09-18T01:36:21;99435.59;;;16.74
40199;BMP280;25906;43.536;26.068;2023-09-18T01:39:06;99438.03;;;16.72
40199;BMP280;25906;43.536;26.068;2023-09-18T01:41:52;99441.88;;;16.71
40199;BMP280;25906;43.536;26.068;2023-09-18T01:44:37;99443.66;;;16.64
40199;BMP280;25906;43.536;26.068;2023-09-18T01:47:23;99443.34;;;16.53
40199;BMP280;25906;43.536;26.068;2023-09-18T01:50:09;99443.81;;;16.61
40199;BMP280;25906;43.536;26.068;2023-09-18T01:52:55;99428.66;;;16.49
40199;BMP280;25906;43.536;26.068;2023-09-18T01:55:40;99440.34;;;16.42
40199;BMP280;25906;43.536;26.068;2023-09-18T01:58:26;99442.44;;;16.47
40199;BMP280;25906;43.536;26.068;2023-09-18T02:01:12;99440.84;;;16.41
40199;BMP280;25906;43.536;26.068;2023-09-18T02:03:57;99440.97;;;16.46
40199;BMP280;25906;43.536;26.068;2023-09-18T02:06:44;99443.94;;;16.39
40199;BMP280;25906;43.536;26.068;2023-09-18T02:09:29;99444.38;;;16.47
40199;BMP280;25906;43.536;26.068;2023-09-18T02:12:15;99444.81;;;16.45
40199;BMP280;25906;43.536;26.068;2023-09-18T02:15:03;99447.19;;;16.43
40199;BMP280;25906;43.536;26.068;2023-09-18T02:17:52;99446.63;;;16.48
40199;BMP280;25906;43.536;26.068;2023-09-18T02:20:41;99449.56;;;16.50
40199;BMP280;25906;43.536;26.068;2023-09-18T02:23:26;99453.28;;;16.44
40199;BMP280;25906;43.536;26.068;2023-09-18T02:26:12;99448.09;;;16.40
40199;BMP280;25906;43.536;26.068;2023-09-18T02:28:59;99455.19;;;16.34
40199;BMP280;25906;43.536;26.068;2023-09-18T02:31:45;99458.47;;;16.38
40199;BMP280;25906;43.536;26.068;2023-09-18T02:34:31;99451.34;;;16.44
40199;BMP280;25906;43.536;26.068;2023-09-18T02:37:17;99464.09;;;16.49
40199;BMP280;25906;43.536;26.068;2023-09-18T02:40:02;99464.09;;;16.49
40199;BMP280;25906;43.536;26.068;2023-09-18T02:42:48;99461.63;;;16.46
40199;BMP280;25906;43.536;26.068;2023-09-18T02:45:33;99466.81;;;16.40
40199;BMP280;25906;43.536;26.068;2023-09-18T02:48:19;99475.09;;;16.42
40199;BMP280;25906;43.536;26.068;2023-09-18T02:51:05;99476.28;;;16.41
40199;BMP280;25906;43.536;26.068;2023-09-18T02:53:51;99478.66;;;16.39
40199;BMP280;25906;43.536;26.068;2023-09-18T02:56:36;99471.84;;;16.38
40199;BMP280;25906;43.536;26.068;2023-09-18T02:59:23;99472.41;;;16.33
40199;BMP280;25906;43.536;26.068;2023-09-18T03:02:08;99462.47;;;16.34
40199;BMP280;25906;43.536;26.068;2023-09-18T03:04:54;99469.44;;;16.31
40199;BMP280;25906;43.536;26.068;2023-09-18T03:07:39;99483.53;;;16.32
40199;BMP280;25906;43.536;26.068;2023-09-18T03:10:25;99480.69;;;16.26
40199;BMP280;25906;43.536;26.068;2023-09-18T03:13:14;99480.09;;;16.22
40199;BMP280;25906;43.536;26.068;2023-09-18T03:15:59;99484.28;;;16.23
40199;BMP280;25906;43.536;26.068;2023-09-18T03:18:45;99488.44;;;16.24
40199;BMP280;25906;43.536;26.068;2023-09-18T03:21:30;99481.91;;;16.25
40199;BMP280;25906;43.536;26.068;2023-09-18T03:24:18;99481.16;;;16.25
40199;BMP280;25906;43.536;26.068;2023-09-18T03:27:04;99478.19;;;16.23
40199;BMP280;25906;43.536;26.068;2023-09-18T03:29:49;99476.66;;;16.12
40199;BMP280;25906;43.536;26.068;2023-09-18T03:32:35;99475.34;;;16.08
40199;BMP280;25906;43.536;26.068;2023-09-18T03:35:21;99475.75;;;16.06
40199;BMP280;25906;43.536;26.068;2023-09-18T03:38:06;99489.50;;;15.96
40199;BMP280;25906;43.536;26.068;2023-09-18T03:40:52;99482.41;;;16.02
40199;BMP280;25906;43.536;26.068;2023-09-18T03:43:37;99491.00;;;15.97
40199;BMP280;25906;43.536;26.068;2023-09-18T03:46:23;99493.81;;;15.93
40199;BMP280;25906;43.536;26.068;2023-09-18T03:49:08;99495.16;;;15.98
40199;BMP280;25906;43.536;26.068;2023-09-18T03:51:54;99496.22;;;16.00
40199;BMP280;25906;43.536;26.068;2023-09-18T03:54:39;99500.63;;;15.94
40199;BMP280;25906;43.536;26.068;2023-09-18T03:57:25;99499.16;;;15.93
40199;BMP280;25906;43.536;26.068;2023-09-18T04:00:11;99501.38;;;15.95
40199;BMP280;25906;43.536;26.068;2023-09-18T04:02:57;99504.03;;;15.95
40199;BMP280;25906;43.536;26.068;2023-09-18T04:05:42;99504.69;;;15.99
40199;BMP280;25906;43.536;26.068;2023-09-18T04:08:28;99511.78;;;15.93
40199;BMP280;25906;43.536;26.068;2023-09-18T04:11:13;99521.50;;;15.87
40199;BMP280;25906;43.536;26.068;2023-09-18T04:14:00;99511.78;;;15.93
40199;BMP280;25906;43.536;26.068;2023-09-18T04:16:46;99514.88;;;15.91
40199;BMP280;25906;43.536;26.068;2023-09-18T04:19:31;99512.03;;;15.95
40199;BMP280;25906;43.536;26.068;2023-09-18T04:22:17;99523.03;;;15.97
40199;BMP280;25906;43.536;26.068;2023-09-18T04:25:03;99528.56;;;16.02
40199;BMP280;25906;43.536;26.068;2023-09-18T04:27:50;99521.28;;;16.03
40199;BMP280;25906;43.536;26.068;2023-09-18T04:30:38;99517.56;;;16.00
40199;BMP280;25906;43.536;26.068;2023-09-18T04:33:23;99519.50;;;16.00
40199;BMP280;25906;43.536;26.068;2023-09-18T04:36:09;99519.22;;;16.07
40199;BMP280;25906;43.536;26.068;2023-09-18T04:38:54;99519.41;;;16.12
40199;BMP280;25906;43.536;26.068;2023-09-18T04:41:40;99525.16;;;16.11
40199;BMP280;25906;43.536;26.068;2023-09-18T04:44:25;99516.13;;;16.08
40199;BMP280;25906;43.536;26.068;2023-09-18T04:47:11;99525.66;;;16.19
40199;BMP280;25906;43.536;26.068;2023-09-18T04:49:57;99523.00;;;16.28
40199;BMP280;25906;43.536;26.068;2023-09-18T04:52:42;99531.34;;;16.30
40199;BMP280;25906;43.536;26.068;2023-09-18T04:55:28;99533.41;;;16.35
40199;BMP280;25906;43.536;26.068;2023-09-18T04:58:14;99525.09;;;16.42
40199;BMP280;25906;43.536;26.068;2023-09-18T05:00:59;99529.72;;;16.41
40199;BMP280;25906;43.536;26.068;2023-09-18T05:03:45;99530.63;;;16.47
40199;BMP280;25906;43.536;26.068;2023-09-18T05:06:31;99536.13;;;16.53
40199;BMP280;25906;43.536;26.068;2023-09-18T05:09:17;99532.28;;;16.63
40199;BMP280;25906;43.536;26.068;2023-09-18T05:12:04;99524.44;;;16.68
40199;BMP280;25906;43.536;26.068;2023-09-18T05:14:50;99518.22;;;16.72
40199;BMP280;25906;43.536;26.068;2023-09-18T05:17:47;99520.28;;;16.77
40199;BMP280;25906;43.536;26.068;2023-09-18T05:20:34;99519.97;;;16.75
40199;BMP280;25906;43.536;26.068;2023-09-18T05:23:19;99521.31;;;16.88
40199;BMP280;25906;43.536;26.068;2023-09-18T05:26:05;99523.84;;;16.92
40199;BMP280;25906;43.536;26.068;2023-09-18T05:28:50;99521.47;;;17.03
40199;BMP280;25906;43.536;26.068;2023-09-18T05:31:36;99520.88;;;17.17
40199;BMP280;25906;43.536;26.068;2023-09-18T05:34:22;99521.88;;;17.29
40199;BMP280;25906;43.536;26.068;2023-09-18T05:37:08;99523.66;;;17.41
40199;BMP280;25906;43.536;26.068;2023-09-18T05:39:53;99523.22;;;17.51
40199;BMP280;25906;43.536;26.068;2023-09-18T05:42:40;99527.31;;;17.61
40199;BMP280;25906;43.536;26.068;2023-09-18T05:45:29;99529.97;;;17.70
40199;BMP280;25906;43.536;26.068;2023-09-18T05:48:16;99530.38;;;17.78
40199;BMP280;25906;43.536;26.068;2023-09-18T05:51:02;99525.84;;;17.93
40199;BMP280;25906;43.536;26.068;2023-09-18T05:53:49;99532.56;;;17.98
40199;BMP280;25906;43.536;26.068;2023-09-18T05:56:34;99535.94;;;18.07
40199;BMP280;25906;43.536;26.068;2023-09-18T05:59:20;99540.75;;;18.27
40199;BMP280;25906;43.536;26.068;2023-09-18T06:02:05;99539.19;;;18.35
40199;BMP280;25906;43.536;26.068;2023-09-18T06:04:55;99542.56;;;18.45
40199;BMP280;25906;43.536;26.068;2023-09-18T06:07:41;99538.34;;;18.53
40199;BMP280;25906;43.536;26.068;2023-09-18T06:10:27;99537.09;;;18.63
40199;BMP280;25906;43.536;26.068;2023-09-18T06:13:12;99546.09;;;18.74
40199;BMP280;25906;43.536;26.068;2023-09-18T06:15:58;99540.19;;;18.85
40199;BMP280;25906;43.536;26.068;2023-09-18T06:18:43;99540.50;;;19.02
40199;BMP280;25906;43.536;26.068;2023-09-18T06:21:30;99545.31;;;19.12
40199;BMP280;25906;43.536;26.068;2023-09-18T06:24:16;99543.66;;;19.29
40199;BMP280;25906;43.536;26.068;2023-09-18T06:27:02;99537.47;;;19.38
40199;BMP280;25906;43.536;26.068;2023-09-18T06:29:49;99527.00;;;19.40
40199;BMP280;25906;43.536;26.068;2023-09-18T06:32:34;99529.94;;;19.57
40199;BMP280;25906;43.536;26.068;2023-09-18T06:35:22;99535.69;;;19.64
40199;BMP280;25906;43.536;26.068;2023-09-18T06:38:07;99538.16;;;19.82
40199;BMP280;25906;43.536;26.068;2023-09-18T06:40:55;99541.94;;;19.90
40199;BMP280;25906;43.536;26.068;2023-09-18T06:43:40;99532.06;;;20.02
40199;BMP280;25906;43.536;26.068;2023-09-18T06:46:26;99532.63;;;20.06
40199;BMP280;25906;43.536;26.068;2023-09-18T06:49:11;99537.94;;;20.21
40199;BMP280;25906;43.536;26.068;2023-09-18T06:51:57;99529.94;;;20.26
40199;BMP280;25906;43.536;26.068;2023-09-18T06:54:43;99544.59;;;20.45
40199;BMP280;25906;43.536;26.068;2023-09-18T06:57:29;99551.09;;;20.59
40199;BMP280;25906;43.536;26.068;2023-09-18T07:00:15;99551.44;;;20.66
40199;BMP280;25906;43.536;26.068;2023-09-18T07:03:00;99552.56;;;20.80
40199;BMP280;25906;43.536;26.068;2023-09-18T07:05:46;99543.31;;;20.87
40199;BMP280;25906;43.536;26.068;2023-09-18T07:08:31;99539.94;;;20.92
40199;BMP280;25906;43.536;26.068;2023-09-18T07:11:17;99550.09;;;21.02
40199;BMP280;25906;43.536;26.068;2023-09-18T07:14:03;99553.19;;;21.21
40199;BMP280;25906;43.536;26.068;2023-09-18T07:16:51;99554.47;;;21.25
40199;BMP280;25906;43.536;26.068;2023-09-18T07:19:36;99547.28;;;21.48
40199;BMP280;25906;43.536;26.068;2023-09-18T07:22:22;99557.19;;;21.62
40199;BMP280;25906;43.536;26.068;2023-09-18T07:25:07;99557.97;;;21.74
40199;BMP280;25906;43.536;26.068;2023-09-18T07:27:53;99553.69;;;21.93
40199;BMP280;25906;43.536;26.068;2023-09-18T07:30:38;99560.28;;;21.86
40199;BMP280;25906;43.536;26.068;2023-09-18T07:33:24;99551.22;;;21.89
40199;BMP280;25906;43.536;26.068;2023-09-18T07:36:09;99560.13;;;22.07
40199;BMP280;25906;43.536;26.068;2023-09-18T07:38:55;99556.03;;;22.22
40199;BMP280;25906;43.536;26.068;2023-09-18T07:41:41;99556.56;;;22.37
40199;BMP280;25906;43.536;26.068;2023-09-18T07:44:27;99549.22;;;22.32
40199;BMP280;25906;43.536;26.068;2023-09-18T07:47:12;99548.56;;;22.60
40199;BMP280;25906;43.536;26.068;2023-09-18T07:49:58;99552.25;;;22.73
40199;BMP280;25906;43.536;26.068;2023-09-18T07:52:43;99553.97;;;22.65
40199;BMP280;25906;43.536;26.068;2023-09-18T07:55:29;99549.78;;;22.64
40199;BMP280;25906;43.536;26.068;2023-09-18T07:58:15;99551.00;;;22.69
40199;BMP280;25906;43.536;26.068;2023-09-18T08:01:00;99551.69;;;22.47
40199;BMP280;25906;43.536;26.068;2023-09-18T08:03:50;99552.22;;;22.51
40199;BMP280;25906;43.536;26.068;2023-09-18T08:06:36;99551.50;;;22.62
40199;BMP280;25906;43.536;26.068;2023-09-18T08:09:23;99553.25;;;22.87
40199;BMP280;25906;43.536;26.068;2023-09-18T08:12:08;99551.31;;;23.04
40199;BMP280;25906;43.536;26.068;2023-09-18T08:14:54;99544.69;;;23.16
40199;BMP280;25906;43.536;26.068;2023-09-18T08:17:42;99549.34;;;22.99
40199;BMP280;25906;43.536;26.068;2023-09-18T08:20:28;99552.25;;;22.68
40199;BMP280;25906;43.536;26.068;2023-09-18T08:23:14;99553.28;;;22.92
40199;BMP280;25906;43.536;26.068;2023-09-18T08:25:59;99542.94;;;23.46
40199;BMP280;25906;43.536;26.068;2023-09-18T08:28:46;99551.75;;;23.58
40199;BMP280;25906;43.536;26.068;2023-09-18T08:31:31;99542.72;;;23.33
40199;BMP280;25906;43.536;26.068;2023-09-18T08:34:17;99533.72;;;23.94
40199;BMP280;25906;43.536;26.068;2023-09-18T08:37:03;99527.97;;;24.14
40199;BMP280;25906;43.536;26.068;2023-09-18T08:39:48;99514.06;;;24.39
40199;BMP280;25906;43.536;26.068;2023-09-18T08:42:35;99511.94;;;23.69
40199;BMP280;25906;43.536;26.068;2023-09-18T08:45:41;99511.94;;;24.27
40199;BMP280;25906;43.536;26.068;2023-09-18T08:48:29;99520.72;;;23.81
40199;BMP280;25906;43.536;26.068;2023-09-18T08:51:20;99513.16;;;23.74
40199;BMP280;25906;43.536;26.068;2023-09-18T08:54:07;99513.66;;;24.24
40199;BMP280;25906;43.536;26.068;2023-09-18T08:56:53;99502.34;;;24.61
40199;BMP280;25906;43.536;26.068;2023-09-18T08:59:40;99505.78;;;24.62
40199;BMP280;25906;43.536;26.068;2023-09-18T09:02:26;99506.56;;;24.16
40199;BMP280;25906;43.536;26.068;2023-09-18T09:05:11;99504.84;;;24.54
40199;BMP280;25906;43.536;26.068;2023-09-18T09:07:57;99513.84;;;24.32
40199;BMP280;25906;43.536;26.068;2023-09-18T09:10:42;99509.06;;;24.08
40199;BMP280;25906;43.536;26.068;2023-09-18T09:13:28;99508.63;;;24.39
40199;BMP280;25906;43.536;26.068;2023-09-18T09:16:13;99485.59;;;24.27
40199;BMP280;25906;43.536;26.068;2023-09-18T09:19:02;99499.31;;;25.00
40199;BMP280;25906;43.536;26.068;2023-09-18T09:21:48;99495.31;;;24.77
40199;BMP280;25906;43.536;26.068;2023-09-18T09:24:43;99494.69;;;24.24
40199;BMP280;25906;43.536;26.068;2023-09-18T09:27:29;99502.22;;;24.78
40199;BMP280;25906;43.536;26.068;2023-09-18T09:30:25;99493.75;;;24.22
40199;BMP280;25906;43.536;26.068;2023-09-18T09:33:12;99489.53;;;24.91
40199;BMP280;25906;43.536;26.068;2023-09-18T09:35:57;99490.97;;;25.46
40199;BMP280;25906;43.536;26.068;2023-09-18T09:38:44;99490.84;;;25.09
40199;BMP280;25906;43.536;26.068;2023-09-18T09:41:31;99487.94;;;24.48
40199;BMP280;25906;43.536;26.068;2023-09-18T09:44:16;99498.34;;;23.92
40199;BMP280;25906;43.536;26.068;2023-09-18T09:47:05;99494.38;;;24.74
40199;BMP280;25906;43.536;26.068;2023-09-18T09:49:51;99479.19;;;24.66
40199;BMP280;25906;43.536;26.068;2023-09-18T09:52:44;99489.63;;;25.10
40199;BMP280;25906;43.536;26.068;2023-09-18T09:55:33;99476.03;;;25.34
40199;BMP280;25906;43.536;26.068;2023-09-18T09:58:26;99473.72;;;24.71
40199;BMP280;25906;43.536;26.068;2023-09-18T10:01:13;99482.63;;;24.66
40199;BMP280;25906;43.536;26.068;2023-09-18T10:04:11;99482.09;;;23.92
40199;BMP280;25906;43.536;26.068;2023-09-18T10:07:16;99471.75;;;24.36
40199;BMP280;25906;43.536;26.068;2023-09-18T10:10:04;99457.09;;;24.26
40199;BMP280;25906;43.536;26.068;2023-09-18T10:12:49;99462.03;;;24.52
40199;BMP280;25906;43.536;26.068;2023-09-18T10:15:37;99467.78;;;25.02
40199;BMP280;25906;43.536;26.068;2023-09-18T10:18:36;99468.59;;;25.16
40199;BMP280;25906;43.536;26.068;2023-09-18T10:21:41;99455.28;;;25.18
40199;BMP280;25906;43.536;26.068;2023-09-18T10:24:34;99458.72;;;25.43
40199;BMP280;25906;43.536;26.068;2023-09-18T10:27:23;99456.13;;;25.07
40199;BMP280;25906;43.536;26.068;2023-09-18T10:30:12;99454.50;;;25.23
40199;BMP280;25906;43.536;26.068;2023-09-18T10:32:57;99452.16;;;24.90
40199;BMP280;25906;43.536;26.068;2023-09-18T10:35:45;99448.84;;;24.73
40199;BMP280;25906;43.536;26.068;2023-09-18T10:38:33;99454.28;;;24.97
40199;BMP280;25906;43.536;26.068;2023-09-18T10:41:20;99437.50;;;25.23
40199;BMP280;25906;43.536;26.068;2023-09-18T10:44:06;99433.81;;;25.81
40199;BMP280;25906;43.536;26.068;2023-09-18T10:46:52;99439.59;;;25.35
40199;BMP280;25906;43.536;26.068;2023-09-18T10:49:38;99450.34;;;24.98
40199;BMP280;25906;43.536;26.068;2023-09-18T10:52:24;99442.47;;;25.61
40199;BMP280;25906;43.536;26.068;2023-09-18T10:55:13;99443.03;;;26.10
40199;BMP280;25906;43.536;26.068;2023-09-18T10:58:00;99435.63;;;26.69
40199;BMP280;25906;43.536;26.068;2023-09-18T11:00:47;99427.09;;;27.04
40199;BMP280;25906;43.536;26.068;2023-09-18T11:03:33;99426.06;;;26.81
40199;BMP280;25906;43.536;26.068;2023-09-18T11:06:19;99427.31;;;26.80
40199;BMP280;25906;43.536;26.068;2023-09-18T11:09:09;99428.72;;;27.33
40199;BMP280;25906;43.536;26.068;2023-09-18T11:12:02;99425.06;;;27.31
40199;BMP280;25906;43.536;26.068;2023-09-18T11:14:58;99410.69;;;27.09
40199;BMP280;25906;43.536;26.068;2023-09-18T11:17:44;99417.88;;;27.07
40199;BMP280;25906;43.536;26.068;2023-09-18T11:20:29;99411.00;;;27.19
40199;BMP280;25906;43.536;26.068;2023-09-18T11:26:03;99407.03;;;26.81
40199;BMP280;25906;43.536;26.068;2023-09-18T11:28:52;99400.72;;;26.33
40199;BMP280;25906;43.536;26.068;2023-09-18T11:31:48;99412.69;;;26.25
40199;BMP280;25906;43.536;26.068;2023-09-18T11:34:37;99409.75;;;26.81
40199;BMP280;25906;43.536;26.068;2023-09-18T11:37:26;99407.44;;;27.11
40199;BMP280;25906;43.536;26.068;2023-09-18T11:40:28;99414.19;;;27.31
40199;BMP280;25906;43.536;26.068;2023-09-18T11:43:28;99414.72;;;26.50
40199;BMP280;25906;43.536;26.068;2023-09-18T11:46:21;99404.91;;;26.47
40199;BMP280;25906;43.536;26.068;2023-09-18T11:49:07;99408.78;;;26.20
40199;BMP280;25906;43.536;26.068;2023-09-18T11:51:58;99385.47;;;25.67
40199;BMP280;25906;43.536;26.068;2023-09-18T11:54:44;99397.09;;;25.62
40199;BMP280;25906;43.536;26.068;2023-09-18T11:57:35;99383.50;;;25.25
40199;BMP280;25906;43.536;26.068;2023-09-18T12:00:21;99394.84;;;25.04
40199;BMP280;25906;43.536;26.068;2023-09-18T12:03:16;99393.16;;;25.01
40199;BMP280;25906;43.536;26.068;2023-09-18T12:06:03;99383.41;;;24.93
40199;BMP280;25906;43.536;26.068;2023-09-18T12:08:54;99386.41;;;24.89
40199;BMP280;25906;43.536;26.068;2023-09-18T12:11:43;99378.66;;;25.60
40199;BMP280;25906;43.536;26.068;2023-09-18T12:14:31;99372.06;;;25.88
40199;BMP280;25906;43.536;26.068;2023-09-18T12:17:16;99368.81;;;26.08
40199;BMP280;25906;43.536;26.068;2023-09-18T12:20:02;99366.91;;;26.47
40199;BMP280;25906;43.536;26.068;2023-09-18T12:22:50;99360.00;;;26.73
40199;BMP280;25906;43.536;26.068;2023-09-18T12:25:35;99351.69;;;26.13
40199;BMP280;25906;43.536;26.068;2023-09-18T12:28:22;99350.28;;;26.38
40199;BMP280;25906;43.536;26.068;2023-09-18T12:31:13;99350.63;;;26.03
40199;BMP280;25906;43.536;26.068;2023-09-18T12:33:59;99351.19;;;25.82
40199;BMP280;25906;43.536;26.068;2023-09-18T12:36:45;99358.59;;;25.82
40199;BMP280;25906;43.536;26.068;2023-09-18T12:39:34;99353.66;;;25.49
40199;BMP280;25906;43.536;26.068;2023-09-18T12:42:20;99355.47;;;25.59
40199;BMP280;25906;43.536;26.068;2023-09-18T12:45:06;99355.72;;;25.43
40199;BMP280;25906;43.536;26.068;2023-09-18T12:47:55;99347.19;;;25.70
40199;BMP280;25906;43.536;26.068;2023-09-18T12:50:41;99345.59;;;25.62
40199;BMP280;25906;43.536;26.068;2023-09-18T12:53:27;99341.22;;;25.72
40199;BMP280;25906;43.536;26.068;2023-09-18T12:56:13;99340.81;;;26.00
40199;BMP280;25906;43.536;26.068;2023-09-18T12:58:59;99338.97;;;26.21
40199;BMP280;25906;43.536;26.068;2023-09-18T13:01:48;99332.81;;;26.20
40199;BMP280;25906;43.536;26.068;2023-09-18T13:04:34;99335.50;;;26.07
40199;BMP280;25906;43.536;26.068;2023-09-18T13:07:24;99335.53;;;26.20
40199;BMP280;25906;43.536;26.068;2023-09-18T13:10:09;99331.16;;;26.30
40199;BMP280;25906;43.536;26.068;2023-09-18T13:13:00;99325.84;;;26.25
40199;BMP280;25906;43.536;26.068;2023-09-18T13:15:47;99321.97;;;26.33
40199;BMP280;25906;43.536;26.068;2023-09-18T13:18:32;99317.50;;;26.36
40199;BMP280;25906;43.536;26.068;2023-09-18T13:21:18;99324.03;;;26.14
40199;BMP280;25906;43.536;26.068;2023-09-18T13:24:06;99319.13;;;26.13
40199;BMP280;25906;43.536;26.068;2023-09-18T13:26:53;99310.88;;;26.05
40199;BMP280;25906;43.536;26.068;2023-09-18T13:29:38;99308.03;;;26.11
40199;BMP280;25906;43.536;26.068;2023-09-18T13:32:24;99301.38;;;25.99
40199;BMP280;25906;43.536;26.068;2023-09-18T13:35:10;99300.22;;;26.07
40199;BMP280;25906;43.536;26.068;2023-09-18T13:37:56;99292.09;;;26.07
40199;BMP280;25906;43.536;26.068;2023-09-18T13:40:43;99296.28;;;26.21
40199;BMP280;25906;43.536;26.068;2023-09-18T13:43:29;99301.59;;;26.14
40199;BMP280;25906;43.536;26.068;2023-09-18T13:46:19;99283.63;;;25.98
40199;BMP280;25906;43.536;26.068;2023-09-18T13:49:05;99290.19;;;26.02
40199;BMP280;25906;43.536;26.068;2023-09-18T13:51:51;99278.81;;;25.91
40199;BMP280;25906;43.536;26.068;2023-09-18T13:54:37;99272.66;;;25.90
40199;BMP280;25906;43.536;26.068;2023-09-18T13:57:23;99273.41;;;25.91
40199;BMP280;25906;43.536;26.068;2023-09-18T14:00:09;99278.63;;;26.02
40199;BMP280;25906;43.536;26.068;2023-09-18T14:02:57;99280.09;;;26.03
40199;BMP280;25906;43.536;26.068;2023-09-18T14:05:42;99277.22;;;25.82
40199;BMP280;25906;43.536;26.068;2023-09-18T14:08:28;99276.50;;;25.95
40199;BMP280;25906;43.536;26.068;2023-09-18T14:11:14;99282.78;;;25.90
40199;BMP280;25906;43.536;26.068;2023-09-18T14:13:59;99290.75;;;25.69
40199;BMP280;25906;43.536;26.068;2023-09-18T14:16:45;99289.28;;;25.68
40199;BMP280;25906;43.536;26.068;2023-09-18T14:19:31;99290.09;;;25.63
40199;BMP280;25906;43.536;26.068;2023-09-18T14:22:16;99281.56;;;25.40
40199;BMP280;25906;43.536;26.068;2023-09-18T14:25:07;99281.53;;;25.27
40199;BMP280;25906;43.536;26.068;2023-09-18T14:27:53;99282.16;;;25.33
40199;BMP280;25906;43.536;26.068;2023-09-18T14:30:39;99275.63;;;25.42
40199;BMP280;25906;43.536;26.068;2023-09-18T14:33:25;99271.53;;;25.54
40199;BMP280;25906;43.536;26.068;2023-09-18T14:36:10;99272.41;;;25.43
40199;BMP280;25906;43.536;26.068;2023-09-18T14:38:56;99265.13;;;25.20
40199;BMP280;25906;43.536;26.068;2023-09-18T14:41:43;99261.03;;;25.13
40199;BMP280;25906;43.536;26.068;2023-09-18T14:44:28;99263.06;;;25.26
40199;BMP280;25906;43.536;26.068;2023-09-18T14:47:15;99265.28;;;25.27
40199;BMP280;25906;43.536;26.068;2023-09-18T14:50:01;99260.78;;;25.30
40199;BMP280;25906;43.536;26.068;2023-09-18T14:52:47;99270.66;;;25.46
40199;BMP280;25906;43.536;26.068;2023-09-18T14:55:32;99265.63;;;25.37
40199;BMP280;25906;43.536;26.068;2023-09-18T14:58:18;99260.06;;;25.29
40199;BMP280;25906;43.536;26.068;2023-09-18T15:01:07;99259.69;;;25.20
40199;BMP280;25906;43.536;26.068;2023-09-18T15:03:52;99256.41;;;25.27
40199;BMP280;25906;43.536;26.068;2023-09-18T15:06:37;99248.84;;;25.01
40199;BMP280;25906;43.536;26.068;2023-09-18T15:09:23;99261.53;;;25.11
40199;BMP280;25906;43.536;26.068;2023-09-18T15:12:09;99253.69;;;25.08
40199;BMP280;25906;43.536;26.068;2023-09-18T15:14:56;99259.38;;;25.23
40199;BMP280;25906;43.536;26.068;2023-09-18T15:17:42;99260.50;;;25.14
40199;BMP280;25906;43.536;26.068;2023-09-18T15:20:28;99259.66;;;25.06
40199;BMP280;25906;43.536;26.068;2023-09-18T15:23:13;99266.66;;;24.96
40199;BMP280;25906;43.536;26.068;2023-09-18T15:25:59;99249.44;;;24.94
40199;BMP280;25906;43.536;26.068;2023-09-18T15:28:44;99256.84;;;24.75
40199;BMP280;25906;43.536;26.068;2023-09-18T15:31:30;99256.66;;;24.67
40199;BMP280;25906;43.536;26.068;2023-09-18T15:34:15;99252.72;;;24.68
40199;BMP280;25906;43.536;26.068;2023-09-18T15:37:02;99252.28;;;24.64
40199;BMP280;25906;43.536;26.068;2023-09-18T15:39:49;99250.06;;;24.63
40199;BMP280;25906;43.536;26.068;2023-09-18T15:42:39;99248.66;;;24.56
40199;BMP280;25906;43.536;26.068;2023-09-18T15:45:24;99244.84;;;24.46
40199;BMP280;25906;43.536;26.068;2023-09-18T15:48:10;99247.19;;;24.31
40199;BMP280;25906;43.536;26.068;2023-09-18T15:50:55;99241.91;;;24.20